createdAt,value
2022-11-23T00:00:13.229Z,2.20
2022-11-23T00:01:13.192Z,1.90
2022-11-23T00:02:13.235Z,1.70
2022-11-23T00:03:13.157Z,1.80
2022-11-23T00:04:14.147Z,1.90
2022-11-23T00:05:13.135Z,1.80
2022-11-23T00:06:13.199Z,1.80
2022-11-23T00:07:13.141Z,1.80
2022-11-23T00:08:13.099Z,1.70
2022-11-23T00:09:13.154Z,1.60
2022-11-23T00:10:13.145Z,1.90
2022-11-23T00:11:13.080Z,1.70
2022-11-23T00:12:13.106Z,1.70
2022-11-23T00:13:13.088Z,1.70
2022-11-23T00:14:13.064Z,1.90
2022-11-23T00:15:13.043Z,1.70
2022-11-23T00:16:13.003Z,2.30
2022-11-23T00:17:13.010Z,1.70
2022-11-23T00:18:12.993Z,1.80
2022-11-23T00:19:13.025Z,1.70
2022-11-23T00:20:12.998Z,1.80
2022-11-23T00:21:12.962Z,1.60
2022-11-23T00:22:12.970Z,1.40
2022-11-23T00:23:12.952Z,1.70
2022-11-23T00:24:12.970Z,1.80
2022-11-23T00:25:12.962Z,1.90
2022-11-23T00:26:12.927Z,1.60
2022-11-23T00:27:12.912Z,1.30
2022-11-23T00:28:12.891Z,1.60
2022-11-23T00:29:12.902Z,1.30
2022-11-23T00:30:12.881Z,1.90
2022-11-23T00:31:12.862Z,1.70
2022-11-23T00:32:12.836Z,1.40
2022-11-23T00:33:12.828Z,1.80
2022-11-23T00:34:12.848Z,1.50
2022-11-23T00:35:12.809Z,1.10
2022-11-23T00:36:12.877Z,1.70
2022-11-23T00:37:12.814Z,1.30
2022-11-23T00:38:12.774Z,1.50
2022-11-23T00:39:12.754Z,1.70
2022-11-23T00:40:12.786Z,1.30
2022-11-23T00:41:12.755Z,2.00
2022-11-23T00:42:12.728Z,1.60
2022-11-23T00:43:12.705Z,1.50
2022-11-23T00:44:12.708Z,1.20
2022-11-23T00:45:12.696Z,1.40
2022-11-23T00:46:12.709Z,1.40
2022-11-23T00:47:12.697Z,1.60
2022-11-23T00:48:12.656Z,1.60
2022-11-23T00:49:12.754Z,1.30
2022-11-23T00:50:12.627Z,1.80
2022-11-23T00:51:12.648Z,1.50
2022-11-23T00:52:12.629Z,1.50
2022-11-23T00:53:12.608Z,1.50
2022-11-23T00:54:12.589Z,1.30
2022-11-23T00:55:12.630Z,1.70
2022-11-23T00:56:12.561Z,1.30
2022-11-23T00:57:12.561Z,1.70
2022-11-23T00:58:12.541Z,1.30
2022-11-23T00:59:12.542Z,1.20
2022-11-23T01:00:12.559Z,1.30
2022-11-23T01:01:12.591Z,1.50
2022-11-23T01:02:12.501Z,1.60
2022-11-23T01:03:12.501Z,1.90
2022-11-23T01:04:12.502Z,1.40
2022-11-23T01:05:12.480Z,1.60
2022-11-23T01:06:12.453Z,1.40
2022-11-23T01:07:12.480Z,1.50
2022-11-23T01:08:12.435Z,1.50
2022-11-23T01:09:12.473Z,1.50
2022-11-23T01:10:12.418Z,1.50
2022-11-23T01:11:12.396Z,1.40
2022-11-23T01:12:12.388Z,1.80
2022-11-23T01:13:12.399Z,1.60
2022-11-23T01:14:12.366Z,1.50
2022-11-23T01:15:12.434Z,1.50
2022-11-23T01:16:12.348Z,1.70
2022-11-23T01:17:12.337Z,1.70
2022-11-23T01:18:12.314Z,1.60
2022-11-23T01:19:12.324Z,1.30
2022-11-23T01:20:12.317Z,1.50
2022-11-23T01:21:12.286Z,1.80
2022-11-23T01:22:12.275Z,1.60
2022-11-23T01:23:12.273Z,1.60
2022-11-23T01:24:12.276Z,1.70
2022-11-23T01:25:12.262Z,1.80
2022-11-23T01:26:13.179Z,1.60
2022-11-23T01:27:12.246Z,1.60
2022-11-23T01:28:12.206Z,1.30
2022-11-23T01:29:12.212Z,1.60
2022-11-23T01:30:12.186Z,1.50
2022-11-23T01:31:12.182Z,1.50
2022-11-23T01:32:12.198Z,1.50
2022-11-23T01:33:12.156Z,1.60
2022-11-23T01:34:12.150Z,1.60
2022-11-23T01:35:12.129Z,1.60
2022-11-23T01:36:13.105Z,1.40
2022-11-23T01:37:12.108Z,1.90
2022-11-23T01:38:16.771Z,1.60
2022-11-23T01:39:13.114Z,1.40
2022-11-23T01:40:12.073Z,1.50
2022-11-23T01:41:12.070Z,1.60
2022-11-23T01:42:16.593Z,1.40
2022-11-23T01:43:13.070Z,1.60
2022-11-23T01:44:12.029Z,1.90
2022-11-23T01:45:12.019Z,1.60
2022-11-23T01:46:12.010Z,1.40
2022-11-23T01:47:12.001Z,1.50
2022-11-23T01:48:12.021Z,1.30
2022-11-23T01:49:11.984Z,1.70
2022-11-23T01:50:11.972Z,1.60
2022-11-23T01:51:11.955Z,1.40
2022-11-23T01:52:11.980Z,1.50
2022-11-23T01:53:11.933Z,1.40
2022-11-23T01:54:11.944Z,1.70
2022-11-23T01:55:11.911Z,1.40
2022-11-23T01:56:11.933Z,1.60
2022-11-23T01:57:11.897Z,1.30
2022-11-23T01:58:11.863Z,1.40
2022-11-23T01:59:11.873Z,1.40
2022-11-23T02:00:11.860Z,1.80
2022-11-23T02:01:11.867Z,1.60
2022-11-23T02:02:11.852Z,1.60
2022-11-23T02:03:11.825Z,1.30
2022-11-23T02:04:11.806Z,1.50
2022-11-23T02:05:11.825Z,1.90
2022-11-23T02:06:11.787Z,1.50
2022-11-23T02:07:12.796Z,1.60
2022-11-23T02:08:11.756Z,1.80
2022-11-23T02:09:11.789Z,1.40
2022-11-23T02:10:11.769Z,1.70
2022-11-23T02:11:11.727Z,1.70
2022-11-23T02:12:11.716Z,1.90
2022-11-23T02:13:11.737Z,1.90
2022-11-23T02:14:11.687Z,1.50
2022-11-23T02:15:11.734Z,1.70
2022-11-23T02:16:11.680Z,1.80
2022-11-23T02:17:11.673Z,1.90
2022-11-23T02:18:11.648Z,1.50
2022-11-23T02:19:11.651Z,1.40
2022-11-23T02:20:11.670Z,1.90
2022-11-23T02:21:11.624Z,1.70
2022-11-23T02:22:12.560Z,1.80
2022-11-23T02:23:11.597Z,1.40
2022-11-23T02:24:11.575Z,1.50
2022-11-23T02:25:11.580Z,1.70
2022-11-23T02:26:11.580Z,1.40
2022-11-23T02:27:11.556Z,1.70
2022-11-23T02:28:11.571Z,1.50
2022-11-23T02:29:11.532Z,1.80
2022-11-23T02:30:11.521Z,1.60
2022-11-23T02:31:11.522Z,1.80
2022-11-23T02:32:11.504Z,1.90
2022-11-23T02:33:11.487Z,1.70
2022-11-23T02:34:11.494Z,1.80
2022-11-23T02:35:11.464Z,1.70
2022-11-23T02:36:11.462Z,1.20
2022-11-23T02:37:11.443Z,1.90
2022-11-23T02:38:11.429Z,1.60
2022-11-23T02:39:11.457Z,1.60
2022-11-23T02:40:11.408Z,1.40
2022-11-23T02:41:11.413Z,1.50
2022-11-23T02:42:11.372Z,1.90
2022-11-23T02:43:11.381Z,2.00
2022-11-23T02:44:11.382Z,1.90
2022-11-23T02:45:11.408Z,1.60
2022-11-23T02:46:11.343Z,2.00
2022-11-23T02:47:11.485Z,1.40
2022-11-23T02:48:11.320Z,2.10
2022-11-23T02:49:11.315Z,1.50
2022-11-23T02:50:11.295Z,2.00
2022-11-23T02:51:11.318Z,1.80
2022-11-23T02:52:11.277Z,1.90
2022-11-23T02:53:11.267Z,1.70
2022-11-23T02:54:11.249Z,1.90
2022-11-23T02:55:11.253Z,1.70
2022-11-23T02:56:11.235Z,2.10
2022-11-23T02:57:11.289Z,1.80
2022-11-23T02:58:11.210Z,1.70
2022-11-23T02:59:11.200Z,2.10
2022-11-23T03:00:11.188Z,2.00
2022-11-23T03:01:11.218Z,1.70
2022-11-23T03:02:11.157Z,2.10
2022-11-23T03:03:11.244Z,1.80
2022-11-23T03:04:11.150Z,1.80
2022-11-23T03:05:11.138Z,2.00
2022-11-23T03:06:11.142Z,2.20
2022-11-23T03:07:11.136Z,2.00
2022-11-23T03:08:11.090Z,2.20
2022-11-23T03:09:11.110Z,2.20
2022-11-23T03:10:11.089Z,1.90
2022-11-23T03:11:11.062Z,1.80
2022-11-23T03:12:11.049Z,2.10
2022-11-23T03:13:12.024Z,2.30
2022-11-23T03:14:11.024Z,2.00
2022-11-23T03:15:11.021Z,1.70
2022-11-23T03:16:11.003Z,2.10
2022-11-23T03:17:10.996Z,1.80
2022-11-23T03:18:11.005Z,2.10
2022-11-23T03:19:10.974Z,2.40
2022-11-23T03:20:10.953Z,2.00
2022-11-23T03:21:10.992Z,2.20
2022-11-23T03:22:10.936Z,2.20
2022-11-23T03:23:10.924Z,2.10
2022-11-23T03:24:10.947Z,2.20
2022-11-23T03:25:10.907Z,2.30
2022-11-23T03:26:13.152Z,2.20
2022-11-23T03:27:10.906Z,1.90
2022-11-23T03:28:10.877Z,2.10
2022-11-23T03:29:10.871Z,2.20
2022-11-23T03:30:10.850Z,2.10
2022-11-23T03:31:10.834Z,1.90
2022-11-23T03:32:10.828Z,2.20
2022-11-23T03:33:10.839Z,2.30
2022-11-23T03:34:10.800Z,2.50
2022-11-23T03:35:10.796Z,2.50
2022-11-23T03:36:10.774Z,2.20
2022-11-23T03:37:10.797Z,2.30
2022-11-23T03:38:10.771Z,2.40
2022-11-23T03:39:10.748Z,2.10
2022-11-23T03:40:10.733Z,2.30
2022-11-23T03:41:10.753Z,2.30
2022-11-23T03:42:10.710Z,2.30
2022-11-23T03:43:10.715Z,2.20
2022-11-23T03:44:10.685Z,1.80
2022-11-23T03:45:10.688Z,2.30
2022-11-23T03:46:10.689Z,2.40
2022-11-23T03:47:10.659Z,2.20
2022-11-23T03:48:10.674Z,2.30
2022-11-23T03:49:10.694Z,2.40
2022-11-23T03:50:10.624Z,2.20
2022-11-23T03:51:10.609Z,2.80
2022-11-23T03:52:10.599Z,2.30
2022-11-23T03:53:10.610Z,2.70
2022-11-23T03:54:10.579Z,2.40
2022-11-23T03:55:10.615Z,2.40
2022-11-23T03:56:10.561Z,2.30
2022-11-23T03:57:10.553Z,2.50
2022-11-23T03:58:10.537Z,2.00
2022-11-23T03:59:10.532Z,2.40
2022-11-23T04:00:10.522Z,2.30
2022-11-23T04:01:10.569Z,2.00
2022-11-23T04:02:10.512Z,1.90
2022-11-23T04:03:10.493Z,2.10
2022-11-23T04:04:10.695Z,2.00
2022-11-23T04:05:10.466Z,1.90
2022-11-23T04:06:10.466Z,2.10
2022-11-23T04:07:10.461Z,2.40
2022-11-23T04:08:10.451Z,2.00
2022-11-23T04:09:11.355Z,2.00
2022-11-23T04:10:10.472Z,2.20
2022-11-23T04:11:10.386Z,2.40
2022-11-23T04:12:10.386Z,2.60
2022-11-23T04:13:11.816Z,2.20
2022-11-23T04:14:10.355Z,2.20
2022-11-23T04:15:10.338Z,2.40
2022-11-23T04:16:10.357Z,1.90
2022-11-23T04:17:10.325Z,2.00
2022-11-23T04:18:10.308Z,2.50
2022-11-23T04:19:10.297Z,2.30
2022-11-23T04:20:10.446Z,2.00
2022-11-23T04:21:10.267Z,2.10
2022-11-23T04:22:10.305Z,2.10
2022-11-23T04:23:13.319Z,2.20
2022-11-23T04:24:10.277Z,2.40
2022-11-23T04:25:10.227Z,2.10
2022-11-23T04:26:10.274Z,2.20
2022-11-23T04:27:10.228Z,2.00
2022-11-23T04:28:10.248Z,2.00
2022-11-23T04:29:10.190Z,2.30
2022-11-23T04:30:10.182Z,2.20
2022-11-23T04:31:10.166Z,2.60
2022-11-23T04:32:10.160Z,2.10
2022-11-23T04:33:10.137Z,2.20
2022-11-23T04:34:11.137Z,2.00
2022-11-23T04:35:10.162Z,2.10
2022-11-23T04:36:10.125Z,2.20
2022-11-23T04:37:13.299Z,1.90
2022-11-23T04:38:10.142Z,1.90
2022-11-23T04:39:10.144Z,2.80
2022-11-23T04:40:10.069Z,2.30
2022-11-23T04:41:10.066Z,1.80
2022-11-23T04:42:10.057Z,2.00
2022-11-23T04:43:10.022Z,1.90
2022-11-23T04:44:10.037Z,2.10
2022-11-23T04:45:10.819Z,2.10
2022-11-23T04:46:10.003Z,2.00
2022-11-23T04:47:11.445Z,1.60
2022-11-23T04:48:10.008Z,1.50
2022-11-23T04:49:09.962Z,1.90
2022-11-23T04:50:09.974Z,1.80
2022-11-23T04:51:09.974Z,1.80
2022-11-23T04:52:09.936Z,2.10
2022-11-23T04:53:09.938Z,2.10
2022-11-23T04:54:09.932Z,2.10
2022-11-23T04:55:09.913Z,1.90
2022-11-23T04:56:09.904Z,2.00
2022-11-23T04:57:09.919Z,2.10
2022-11-23T04:58:09.867Z,2.30
2022-11-23T04:59:10.022Z,1.90
2022-11-23T05:00:09.845Z,1.80
2022-11-23T05:01:09.905Z,1.70
2022-11-23T05:02:09.825Z,2.10
2022-11-23T05:03:10.652Z,2.00
2022-11-23T05:04:14.846Z,2.20
2022-11-23T05:05:12.245Z,1.50
2022-11-23T05:06:09.886Z,2.10
2022-11-23T05:07:11.241Z,1.80
2022-11-23T05:08:10.740Z,1.70
2022-11-23T05:09:11.195Z,1.90
2022-11-23T05:10:11.186Z,1.90
2022-11-23T05:11:11.170Z,1.70
2022-11-23T05:12:11.167Z,1.80
2022-11-23T05:13:10.667Z,2.10
2022-11-23T05:14:11.147Z,2.20
2022-11-23T05:15:11.149Z,1.90
2022-11-23T05:16:09.746Z,2.10
2022-11-23T05:17:09.794Z,2.00
2022-11-23T05:18:09.660Z,2.00
2022-11-23T05:19:10.409Z,2.00
2022-11-23T05:20:09.642Z,2.10
2022-11-23T05:21:09.630Z,1.90
2022-11-23T05:22:09.614Z,2.30
2022-11-23T05:23:10.410Z,1.90
2022-11-23T05:24:09.891Z,2.00
2022-11-23T05:25:09.564Z,2.30
2022-11-23T05:26:09.623Z,1.90
2022-11-23T05:27:09.546Z,2.00
2022-11-23T05:28:30.568Z,1.90
2022-11-23T05:29:10.635Z,2.20
2022-11-23T05:30:09.514Z,2.40
2022-11-23T05:31:09.494Z,2.10
2022-11-23T05:32:09.493Z,2.50
2022-11-23T05:33:09.499Z,1.90
2022-11-23T05:34:09.485Z,1.80
2022-11-23T05:35:10.261Z,2.00
2022-11-23T05:36:09.449Z,2.00
2022-11-23T05:37:10.253Z,2.20
2022-11-23T05:38:09.433Z,2.20
2022-11-23T05:39:09.405Z,1.80
2022-11-23T05:40:09.525Z,2.10
2022-11-23T05:41:09.597Z,1.70
2022-11-23T05:42:10.328Z,1.90
2022-11-23T05:43:09.450Z,2.00
2022-11-23T05:44:09.573Z,1.80
2022-11-23T05:45:11.724Z,2.10
2022-11-23T05:46:09.380Z,1.90
2022-11-23T05:47:09.314Z,2.30
2022-11-23T05:48:09.391Z,2.20
2022-11-23T05:49:09.307Z,2.00
2022-11-23T05:50:09.294Z,2.00
2022-11-23T05:51:09.338Z,1.90
2022-11-23T05:52:09.319Z,2.00
2022-11-23T05:53:09.252Z,2.60
2022-11-23T05:54:09.430Z,2.00
2022-11-23T05:55:09.601Z,2.00
2022-11-23T05:56:09.619Z,2.00
2022-11-23T05:57:09.237Z,2.00
2022-11-23T05:58:09.280Z,2.10
2022-11-23T05:59:09.178Z,2.10
2022-11-23T06:00:10.635Z,2.40
2022-11-23T06:01:09.173Z,2.30
2022-11-23T06:02:09.601Z,2.30
2022-11-23T06:03:09.140Z,2.00
2022-11-23T06:04:10.654Z,2.10
2022-11-23T06:05:10.580Z,2.10
2022-11-23T06:06:09.218Z,2.30
2022-11-23T06:07:09.149Z,1.70
2022-11-23T06:08:09.524Z,2.50
2022-11-23T06:09:09.480Z,2.30
2022-11-23T06:10:09.075Z,1.90
2022-11-23T06:11:09.240Z,1.90
2022-11-23T06:12:10.020Z,2.10
2022-11-23T06:13:09.208Z,2.40
2022-11-23T06:14:13.988Z,2.30
2022-11-23T06:15:10.014Z,2.20
2022-11-23T06:16:09.045Z,2.00
2022-11-23T06:17:09.152Z,2.30
2022-11-23T06:18:09.638Z,2.20
2022-11-23T06:19:09.125Z,2.50
2022-11-23T06:20:10.417Z,2.40
2022-11-23T06:21:09.028Z,2.30
2022-11-23T06:22:09.930Z,2.10
2022-11-23T06:23:10.373Z,2.50
2022-11-23T06:24:08.940Z,2.00
2022-11-23T06:25:10.363Z,2.10
2022-11-23T06:26:08.906Z,2.70
2022-11-23T06:27:12.007Z,1.90
2022-11-23T06:28:09.879Z,2.40
2022-11-23T06:29:10.815Z,2.10
2022-11-23T06:30:08.868Z,2.40
2022-11-23T06:31:10.297Z,2.80
2022-11-23T06:32:08.837Z,2.40
2022-11-23T06:33:08.855Z,2.10
2022-11-23T06:34:10.256Z,2.10
2022-11-23T06:35:08.830Z,2.40
2022-11-23T06:36:10.237Z,2.40
2022-11-23T06:37:08.787Z,2.50
2022-11-23T06:38:08.896Z,2.40
2022-11-23T06:39:10.212Z,2.10
2022-11-23T06:40:08.754Z,2.50
2022-11-23T06:41:09.533Z,2.10
2022-11-23T06:42:37.318Z,2.10
2022-11-23T06:43:09.767Z,2.20
2022-11-23T06:44:08.726Z,2.10
2022-11-23T06:45:08.909Z,2.10
2022-11-23T06:46:08.707Z,2.60
2022-11-23T06:47:12.621Z,2.00
2022-11-23T06:48:09.670Z,2.20
2022-11-23T06:49:08.658Z,2.30
2022-11-23T06:50:08.639Z,2.20
2022-11-23T06:51:08.613Z,2.40
2022-11-23T06:52:08.631Z,1.80
2022-11-23T06:53:08.592Z,2.30
2022-11-23T06:54:08.600Z,2.00
2022-11-23T06:55:08.572Z,2.00
2022-11-23T06:56:08.642Z,2.00
2022-11-23T06:57:08.551Z,2.20
2022-11-23T06:58:08.542Z,2.10
2022-11-23T06:59:08.546Z,2.60
2022-11-23T07:00:08.529Z,2.60
2022-11-23T07:01:08.691Z,2.40
2022-11-23T07:02:08.553Z,2.10
2022-11-23T07:03:08.707Z,1.80
2022-11-23T07:04:08.491Z,2.40
2022-11-23T07:05:08.584Z,2.00
2022-11-23T07:06:09.442Z,2.00
2022-11-23T07:07:08.554Z,2.60
2022-11-23T07:08:08.503Z,2.00
2022-11-23T07:09:08.420Z,1.80
2022-11-23T07:10:08.419Z,2.00
2022-11-23T07:11:08.394Z,2.00
2022-11-23T07:12:08.466Z,2.10
2022-11-23T07:13:08.463Z,2.10
2022-11-23T07:14:08.516Z,1.80
2022-11-23T07:15:09.322Z,1.70
2022-11-23T07:16:08.670Z,2.10
2022-11-23T07:17:08.395Z,2.20
2022-11-23T07:18:08.667Z,2.70
2022-11-23T07:19:08.318Z,2.10
2022-11-23T07:20:08.321Z,2.40
2022-11-23T07:21:08.653Z,1.90
2022-11-23T07:22:08.275Z,2.20
2022-11-23T07:23:08.282Z,2.20
2022-11-23T07:24:08.450Z,2.50
2022-11-23T07:25:08.414Z,2.10
2022-11-23T07:26:09.050Z,2.20
2022-11-23T07:27:08.654Z,2.20
2022-11-23T07:28:08.516Z,2.00
2022-11-23T07:29:08.280Z,2.00
2022-11-23T07:30:08.680Z,2.00
2022-11-23T07:31:08.624Z,1.90
2022-11-23T07:32:08.288Z,1.70
2022-11-23T07:33:08.653Z,2.20
2022-11-23T07:34:08.151Z,2.00
2022-11-23T07:35:09.102Z,2.10
2022-11-23T07:36:08.164Z,2.20
2022-11-23T07:37:08.129Z,1.90
2022-11-23T07:38:08.199Z,2.10
2022-11-23T07:39:08.102Z,1.80
2022-11-23T07:40:08.133Z,1.80
2022-11-23T07:41:08.795Z,2.20
2022-11-23T07:42:31.709Z,2.20
2022-11-23T07:43:10.024Z,2.20
2022-11-23T07:44:08.995Z,1.90
2022-11-23T07:45:08.044Z,2.20
2022-11-23T07:46:08.206Z,2.30
2022-11-23T07:47:08.472Z,2.20
2022-11-23T07:48:08.063Z,1.80
2022-11-23T07:49:08.933Z,2.50
2022-11-23T07:50:08.143Z,2.40
2022-11-23T07:51:07.957Z,2.80
2022-11-23T07:52:07.946Z,1.90
2022-11-23T07:53:08.015Z,1.90
2022-11-23T07:54:08.046Z,2.30
2022-11-23T07:55:08.147Z,1.90
2022-11-23T07:56:08.870Z,2.00
2022-11-23T07:57:08.045Z,1.70
2022-11-23T07:58:08.124Z,1.90
2022-11-23T07:59:07.891Z,1.70
2022-11-23T08:00:08.165Z,1.70
2022-11-23T08:01:07.875Z,2.10
2022-11-23T08:02:07.864Z,2.60
2022-11-23T08:04:10.261Z,2.00
2022-11-23T08:05:13.903Z,1.80
2022-11-23T08:06:08.919Z,2.30
2022-11-23T08:07:08.327Z,1.90
2022-11-23T08:08:07.991Z,2.10
2022-11-23T08:09:08.147Z,2.10
2022-11-23T08:10:08.669Z,1.90
2022-11-23T08:11:07.731Z,2.00
2022-11-23T08:12:07.791Z,1.90
2022-11-23T08:13:07.729Z,2.00
2022-11-23T08:14:07.714Z,1.90
2022-11-23T08:15:07.675Z,2.00
2022-11-23T08:16:07.679Z,1.70
2022-11-23T08:17:07.678Z,1.90
2022-11-23T08:18:07.649Z,1.80
2022-11-23T08:19:07.779Z,2.20
2022-11-23T08:20:07.659Z,1.80
2022-11-23T08:21:07.997Z,2.00
2022-11-23T08:22:07.650Z,1.90
2022-11-23T08:23:07.720Z,1.70
2022-11-23T08:24:07.575Z,1.90
2022-11-23T08:25:07.590Z,1.90
2022-11-23T08:26:13.243Z,2.10
2022-11-23T08:27:09.371Z,2.10
2022-11-23T08:28:08.481Z,1.90
2022-11-23T08:29:07.783Z,2.00
2022-11-23T08:30:07.903Z,1.80
2022-11-23T08:31:07.547Z,2.20
2022-11-23T08:32:08.936Z,2.20
2022-11-23T08:33:07.485Z,2.20
2022-11-23T08:34:07.463Z,2.00
2022-11-23T08:35:08.256Z,1.90
2022-11-23T08:36:07.823Z,1.80
2022-11-23T08:37:08.393Z,2.00
2022-11-23T08:38:07.414Z,2.00
2022-11-23T08:39:07.470Z,2.10
2022-11-23T08:40:07.727Z,2.40
2022-11-23T08:41:07.876Z,2.30
2022-11-23T08:42:07.556Z,2.60
2022-11-23T08:43:07.501Z,2.20
2022-11-23T08:44:07.849Z,1.90
2022-11-23T08:45:07.566Z,2.20
2022-11-23T08:46:11.243Z,1.90
2022-11-23T08:47:08.741Z,2.00
2022-11-23T08:48:08.269Z,2.30
2022-11-23T08:49:08.747Z,1.90
2022-11-23T08:50:08.175Z,2.30
2022-11-23T08:51:08.226Z,1.90
2022-11-23T08:52:07.807Z,2.30
2022-11-23T08:53:07.488Z,2.30
2022-11-23T08:54:07.238Z,1.90
2022-11-23T08:55:08.679Z,2.30
2022-11-23T08:56:07.300Z,2.20
2022-11-23T08:57:07.466Z,2.00
2022-11-23T08:58:13.178Z,2.20
2022-11-23T08:59:09.178Z,2.00
2022-11-23T09:00:07.268Z,2.20
2022-11-23T09:01:07.378Z,2.50
2022-11-23T09:02:08.017Z,2.40
2022-11-23T09:03:07.270Z,2.20
2022-11-23T09:04:07.132Z,2.00
2022-11-23T09:05:07.191Z,2.20
2022-11-23T09:06:07.781Z,2.20
2022-11-23T09:07:07.989Z,2.70
2022-11-23T09:08:07.109Z,2.20
2022-11-23T09:09:08.006Z,2.90
2022-11-23T09:10:07.913Z,2.40
2022-11-23T09:11:07.107Z,2.50
2022-11-23T09:12:07.283Z,2.60
2022-11-23T09:13:07.862Z,2.20
2022-11-23T09:14:07.326Z,2.40
2022-11-23T09:15:07.270Z,3.00
2022-11-23T09:16:07.943Z,2.40
2022-11-23T09:17:07.246Z,2.60
2022-11-23T09:18:07.034Z,2.50
2022-11-23T09:19:07.167Z,2.50
2022-11-23T09:20:07.975Z,2.70
2022-11-23T09:21:06.935Z,2.30
2022-11-23T09:22:07.001Z,2.40
2022-11-23T09:23:12.358Z,2.60
2022-11-23T09:24:08.321Z,2.40
2022-11-23T09:25:06.948Z,2.60
2022-11-23T09:26:06.875Z,2.40
2022-11-23T09:27:08.328Z,2.30
2022-11-23T09:28:07.689Z,2.20
2022-11-23T09:29:06.930Z,2.30
2022-11-23T09:30:07.007Z,2.10
2022-11-23T09:31:06.880Z,2.10
2022-11-23T09:32:06.836Z,1.70
2022-11-23T09:33:06.887Z,2.30
2022-11-23T09:34:08.237Z,2.60
2022-11-23T09:35:06.818Z,1.90
2022-11-23T09:36:06.839Z,2.40
2022-11-23T09:37:07.734Z,2.50
2022-11-23T09:38:07.613Z,2.70
2022-11-23T09:39:07.056Z,2.20
2022-11-23T09:40:08.193Z,2.50
2022-11-23T09:41:08.180Z,2.60
2022-11-23T09:42:08.161Z,2.70
2022-11-23T09:43:07.529Z,2.30
2022-11-23T09:44:06.733Z,2.70
2022-11-23T09:45:07.630Z,2.50
2022-11-23T09:46:08.135Z,2.30
2022-11-23T09:47:08.106Z,2.40
2022-11-23T09:48:07.612Z,2.30
2022-11-23T09:49:08.081Z,2.60
2022-11-23T09:50:06.636Z,2.80
2022-11-23T09:51:06.649Z,2.60
2022-11-23T09:52:08.062Z,2.40
2022-11-23T09:53:06.651Z,2.30
2022-11-23T09:54:07.387Z,2.40
2022-11-23T09:55:08.165Z,2.00
2022-11-23T09:56:06.678Z,2.50
2022-11-23T09:57:07.371Z,2.30
2022-11-23T09:58:06.698Z,2.20
2022-11-23T09:59:07.464Z,2.10
2022-11-23T10:00:06.732Z,2.60
2022-11-23T10:01:06.712Z,2.40
2022-11-23T10:02:07.321Z,2.80
2022-11-23T10:03:06.654Z,2.10
2022-11-23T10:04:07.916Z,2.20
2022-11-23T10:05:07.913Z,2.10
2022-11-23T10:06:06.471Z,2.40
2022-11-23T10:07:06.614Z,2.30
2022-11-23T10:08:07.865Z,2.40
2022-11-23T10:09:06.555Z,3.00
2022-11-23T10:10:06.525Z,2.90
2022-11-23T10:11:06.596Z,2.40
2022-11-23T10:12:07.215Z,1.90
2022-11-23T10:13:08.339Z,2.20
2022-11-23T10:14:06.705Z,2.90
2022-11-23T10:15:06.355Z,1.90
2022-11-23T10:16:06.942Z,2.60
2022-11-23T10:17:07.779Z,2.50
2022-11-23T10:18:06.474Z,2.50
2022-11-23T10:19:07.256Z,2.20
2022-11-23T10:20:06.345Z,2.00
2022-11-23T10:21:06.295Z,2.50
2022-11-23T10:22:06.936Z,2.10
2022-11-23T10:23:06.279Z,2.00
2022-11-23T10:24:06.268Z,2.30
2022-11-23T10:25:06.342Z,2.40
2022-11-23T10:26:06.309Z,2.90
2022-11-23T10:27:06.276Z,2.30
2022-11-23T10:28:07.661Z,2.30
2022-11-23T10:29:06.422Z,2.30
2022-11-23T10:30:06.191Z,2.40
2022-11-23T10:31:06.268Z,2.60
2022-11-23T10:32:06.213Z,2.20
2022-11-23T10:33:07.602Z,2.50
2022-11-23T10:34:06.153Z,2.60
2022-11-23T10:35:06.638Z,2.10
2022-11-23T10:36:06.286Z,2.60
2022-11-23T10:37:06.369Z,2.10
2022-11-23T10:38:06.136Z,2.50
2022-11-23T10:39:06.190Z,2.40
2022-11-23T10:40:07.514Z,1.90
2022-11-23T10:41:06.241Z,2.10
2022-11-23T10:42:06.192Z,2.20
2022-11-23T10:43:06.059Z,2.00
2022-11-23T10:44:06.032Z,2.50
2022-11-23T10:45:06.185Z,2.40
2022-11-23T10:46:06.055Z,2.10
2022-11-23T10:47:06.035Z,2.80
2022-11-23T10:48:06.005Z,1.90
2022-11-23T10:49:05.991Z,2.30
2022-11-23T10:50:05.953Z,2.00
2022-11-23T10:51:05.996Z,2.00
2022-11-23T10:52:05.961Z,2.10
2022-11-23T10:53:05.960Z,2.30
2022-11-23T10:54:05.967Z,2.10
2022-11-23T10:55:05.988Z,2.00
2022-11-23T10:56:07.340Z,2.30
2022-11-23T10:57:05.887Z,1.90
2022-11-23T10:58:06.817Z,1.90
2022-11-23T10:59:05.868Z,1.60
2022-11-23T11:00:06.044Z,2.10
2022-11-23T11:01:07.319Z,2.20
2022-11-23T11:02:06.777Z,2.20
2022-11-23T11:03:06.038Z,2.20
2022-11-23T11:04:06.648Z,2.10
2022-11-23T11:05:06.654Z,2.00
2022-11-23T11:06:10.093Z,1.80
2022-11-23T11:07:07.297Z,1.80
2022-11-23T11:08:05.759Z,1.90
2022-11-23T11:09:10.801Z,2.10
2022-11-23T11:10:06.928Z,2.30
2022-11-23T11:11:07.696Z,2.20
2022-11-23T11:12:05.945Z,2.30
2022-11-23T11:13:06.013Z,2.80
2022-11-23T11:14:07.142Z,2.00
2022-11-23T11:15:11.740Z,2.30
2022-11-23T11:16:08.121Z,2.60
2022-11-23T11:17:05.789Z,2.30
2022-11-23T11:18:05.750Z,2.10
2022-11-23T11:19:05.723Z,2.10
2022-11-23T11:20:05.995Z,2.30
2022-11-23T11:21:07.572Z,2.30
2022-11-23T11:22:05.640Z,1.80
2022-11-23T11:23:05.995Z,2.70
2022-11-23T11:24:07.036Z,2.50
2022-11-23T11:25:07.534Z,2.00
2022-11-23T11:26:05.581Z,1.90
2022-11-23T11:27:07.494Z,2.20
2022-11-23T11:28:06.039Z,2.00
2022-11-23T11:29:05.597Z,2.10
2022-11-23T11:30:05.548Z,1.80
2022-11-23T11:31:06.492Z,2.00
2022-11-23T11:32:05.599Z,2.30
2022-11-23T11:33:05.493Z,2.40
2022-11-23T11:34:05.529Z,1.90
2022-11-23T11:35:05.608Z,1.80
2022-11-23T11:36:05.574Z,2.00
2022-11-23T11:37:05.565Z,2.30
2022-11-23T11:38:05.432Z,2.30
2022-11-23T11:39:18.189Z,2.00
2022-11-23T11:40:06.520Z,1.90
2022-11-23T11:41:05.479Z,2.20
2022-11-23T11:42:05.380Z,2.20
2022-11-23T11:43:05.413Z,2.30
2022-11-23T11:44:05.369Z,1.80
2022-11-23T11:45:05.352Z,2.00
2022-11-23T11:46:27.986Z,2.10
2022-11-23T11:47:06.340Z,1.80
2022-11-23T11:48:05.576Z,1.70
2022-11-23T11:49:05.316Z,2.40
2022-11-23T11:50:05.582Z,2.20
2022-11-23T11:51:05.299Z,1.60
2022-11-23T11:52:05.404Z,1.90
2022-11-23T11:53:06.276Z,2.00
2022-11-23T11:54:05.375Z,1.80
2022-11-23T11:55:05.278Z,2.00
2022-11-23T11:56:05.426Z,1.90
2022-11-23T11:57:06.011Z,1.90
2022-11-23T11:58:05.307Z,1.70
2022-11-23T11:59:05.568Z,1.80
2022-11-23T12:00:06.644Z,2.00
2022-11-23T12:01:05.279Z,2.00
2022-11-23T12:02:06.256Z,1.80
2022-11-23T12:03:05.237Z,2.00
2022-11-23T12:04:05.279Z,1.40
2022-11-23T12:05:05.134Z,1.80
2022-11-23T12:06:06.565Z,1.40
2022-11-23T12:07:06.662Z,1.70
2022-11-23T12:08:05.935Z,1.70
2022-11-23T12:09:05.105Z,1.50
2022-11-23T12:10:05.081Z,1.40
2022-11-23T12:11:05.577Z,1.80
2022-11-23T12:12:05.213Z,1.70
2022-11-23T12:13:05.048Z,1.60
2022-11-23T12:14:05.057Z,1.70
2022-11-23T12:15:20.521Z,1.80
2022-11-23T12:16:07.448Z,1.30
2022-11-23T12:17:33.785Z,1.70
2022-11-23T12:18:10.549Z,2.10
2022-11-23T12:19:05.847Z,1.90
2022-11-23T12:20:06.989Z,1.50
2022-11-23T12:21:05.220Z,1.50
2022-11-23T12:22:05.124Z,2.30
2022-11-23T12:23:04.928Z,1.40
2022-11-23T12:24:05.871Z,1.30
2022-11-23T12:25:05.792Z,1.50
2022-11-23T12:26:04.895Z,1.30
2022-11-23T12:27:06.339Z,1.50
2022-11-23T12:28:06.314Z,1.50
2022-11-23T12:29:05.103Z,1.50
2022-11-23T12:30:06.306Z,1.30
2022-11-23T12:31:05.691Z,1.80
2022-11-23T12:32:05.082Z,1.60
2022-11-23T12:33:06.277Z,1.70
2022-11-23T12:34:05.436Z,1.40
2022-11-23T12:35:06.254Z,1.50
2022-11-23T12:36:05.610Z,1.40
2022-11-23T12:37:05.123Z,1.80
2022-11-23T12:38:05.610Z,1.70
2022-11-23T12:39:05.060Z,1.40
2022-11-23T12:40:06.225Z,1.80
2022-11-23T12:41:04.978Z,1.40
2022-11-23T12:42:05.494Z,1.60
2022-11-23T12:43:06.166Z,1.40
2022-11-23T12:44:05.094Z,1.70
2022-11-23T12:45:06.142Z,1.30
2022-11-23T12:46:06.131Z,1.70
2022-11-23T12:47:05.444Z,1.80
2022-11-23T12:48:06.097Z,1.40
2022-11-23T12:49:06.087Z,1.70
2022-11-23T12:50:05.600Z,1.40
2022-11-23T12:51:04.661Z,1.30
2022-11-23T12:52:06.580Z,1.20
2022-11-23T12:53:04.706Z,1.50
2022-11-23T12:54:05.434Z,1.40
2022-11-23T12:55:04.825Z,1.40
2022-11-23T12:56:06.053Z,1.50
2022-11-23T12:57:04.789Z,1.80
2022-11-23T12:58:05.369Z,1.40
2022-11-23T12:59:06.059Z,1.60
2022-11-23T13:00:04.599Z,1.30
2022-11-23T13:01:05.369Z,1.30
2022-11-23T13:02:04.585Z,1.80
2022-11-23T13:03:04.540Z,1.60
2022-11-23T13:04:04.959Z,1.80
2022-11-23T13:05:04.511Z,1.50
2022-11-23T13:06:05.904Z,1.50
2022-11-23T13:07:27.698Z,1.40
2022-11-23T13:08:06.909Z,1.50
2022-11-23T13:09:06.348Z,1.40
2022-11-23T13:10:04.863Z,1.60
2022-11-23T13:11:04.946Z,1.70
2022-11-23T13:12:04.704Z,1.50
2022-11-23T13:13:04.878Z,1.20
2022-11-23T13:14:04.426Z,1.90
2022-11-23T13:15:04.524Z,1.60
2022-11-23T13:16:04.459Z,1.60
2022-11-23T13:17:04.477Z,1.70
2022-11-23T13:18:04.506Z,1.80
2022-11-23T13:19:05.240Z,1.80